sensor_id;sensor_type;location;lat;lon;timestamp;P1;durP1;ratioP1;P2;durP2;ratioP2
40314;SDS011;26021;45.640;11.302;2023-04-03T00:00:29;2.20;;;1.20;;
40314;SDS011;26021;45.640;11.302;2023-04-03T00:02:55;1.40;;;0.95;;
40314;SDS011;26021;45.640;11.302;2023-04-03T00:05:21;1.50;;;1.23;;
40314;SDS011;26021;45.640;11.302;2023-04-03T00:07:46;1.67;;;1.15;;
40314;SDS011;26021;45.640;11.302;2023-04-03T00:10:12;2.67;;;1.50;;
40314;SDS011;26021;45.640;11.302;2023-04-03T00:12:38;3.05;;;1.92;;
40314;SDS011;26021;45.640;11.302;2023-04-03T00:15:04;3.35;;;1.25;;
40314;SDS011;26021;45.640;11.302;2023-04-03T00:17:30;2.70;;;1.60;;
40314;SDS011;26021;45.640;11.302;2023-04-03T00:19:55;1.80;;;1.60;;
40314;SDS011;26021;45.640;11.302;2023-04-03T00:22:21;1.50;;;1.40;;
40314;SDS011;26021;45.640;11.302;2023-04-03T00:24:46;5.03;;;3.08;;
40314;SDS011;26021;45.640;11.302;2023-04-03T00:27:12;6.78;;;3.40;;
40314;SDS011;26021;45.640;11.302;2023-04-03T00:29:37;6.00;;;3.22;;
40314;SDS011;26021;45.640;11.302;2023-04-03T00:32:03;7.93;;;3.28;;
40314;SDS011;26021;45.640;11.302;2023-04-03T00:34:28;4.07;;;2.67;;
40314;SDS011;26021;45.640;11.302;2023-04-03T00:36:54;4.88;;;3.10;;
40314;SDS011;26021;45.640;11.302;2023-04-03T00:39:19;5.15;;;2.97;;
40314;SDS011;26021;45.640;11.302;2023-04-03T00:41:45;1.40;;;1.20;;
40314;SDS011;26021;45.640;11.302;2023-04-03T00:44:21;2.25;;;1.27;;
40314;SDS011;26021;45.640;11.302;2023-04-03T00:47:07;1.80;;;1.20;;
40314;SDS011;26021;45.640;11.302;2023-04-03T00:49:36;1.70;;;1.20;;
40314;SDS011;26021;45.640;11.302;2023-04-03T00:52:02;1.38;;;1.10;;
40314;SDS011;26021;45.640;11.302;2023-04-03T00:54:31;1.02;;;1.02;;
40314;SDS011;26021;45.640;11.302;2023-04-03T00:57:00;1.10;;;1.00;;
40314;SDS011;26021;45.640;11.302;2023-04-03T00:59:27;1.38;;;1.20;;
40314;SDS011;26021;45.640;11.302;2023-04-03T01:01:57;2.05;;;1.25;;
40314;SDS011;26021;45.640;11.302;2023-04-03T01:04:28;1.77;;;1.48;;
40314;SDS011;26021;45.640;11.302;2023-04-03T01:06:56;1.70;;;1.25;;
40314;SDS011;26021;45.640;11.302;2023-04-03T01:09:24;2.10;;;1.40;;
40314;SDS011;26021;45.640;11.302;2023-04-03T01:11:51;3.63;;;2.25;;
40314;SDS011;26021;45.640;11.302;2023-04-03T01:14:16;2.28;;;1.95;;
40314;SDS011;26021;45.640;11.302;2023-04-03T01:16:42;3.00;;;1.90;;
40314;SDS011;26021;45.640;11.302;2023-04-03T01:19:08;1.75;;;1.38;;
40314;SDS011;26021;45.640;11.302;2023-04-03T01:24:25;1.83;;;1.70;;
40314;SDS011;26021;45.640;11.302;2023-04-03T01:26:57;3.25;;;2.00;;
40314;SDS011;26021;45.640;11.302;2023-04-03T01:29:23;3.45;;;1.70;;
40314;SDS011;26021;45.640;11.302;2023-04-03T01:31:52;2.92;;;1.48;;
40314;SDS011;26021;45.640;11.302;2023-04-03T01:34:21;1.45;;;1.30;;
40314;SDS011;26021;45.640;11.302;2023-04-03T01:36:47;2.13;;;1.38;;
40314;SDS011;26021;45.640;11.302;2023-04-03T01:39:13;1.45;;;1.30;;
40314;SDS011;26021;45.640;11.302;2023-04-03T01:41:39;2.20;;;1.60;;
40314;SDS011;26021;45.640;11.302;2023-04-03T01:44:04;3.70;;;2.20;;
40314;SDS011;26021;45.640;11.302;2023-04-03T01:46:30;3.50;;;1.98;;
40314;SDS011;26021;45.640;11.302;2023-04-03T01:48:56;2.00;;;1.80;;
40314;SDS011;26021;45.640;11.302;2023-04-03T01:51:21;2.55;;;1.90;;
40314;SDS011;26021;45.640;11.302;2023-04-03T01:53:47;2.40;;;1.75;;
40314;SDS011;26021;45.640;11.302;2023-04-03T01:56:12;2.20;;;1.63;;
40314;SDS011;26021;45.640;11.302;2023-04-03T01:58:38;1.92;;;1.65;;
40314;SDS011;26021;45.640;11.302;2023-04-03T02:01:03;1.73;;;1.55;;
40314;SDS011;26021;45.640;11.302;2023-04-03T02:03:29;2.25;;;1.63;;
40314;SDS011;26021;45.640;11.302;2023-04-03T02:05:55;1.58;;;1.23;;
40314;SDS011;26021;45.640;11.302;2023-04-03T02:08:21;1.23;;;1.02;;
40314;SDS011;26021;45.640;11.302;2023-04-03T02:10:47;1.02;;;1.00;;
40314;SDS011;26021;45.640;11.302;2023-04-03T02:13:14;1.45;;;1.35;;
40314;SDS011;26021;45.640;11.302;2023-04-03T02:15:39;2.42;;;1.20;;
40314;SDS011;26021;45.640;11.302;2023-04-03T02:18:05;1.45;;;1.35;;
40314;SDS011;26021;45.640;11.302;2023-04-03T02:20:31;1.77;;;1.42;;
40314;SDS011;26021;45.640;11.302;2023-04-03T02:22:56;1.20;;;1.10;;
40314;SDS011;26021;45.640;11.302;2023-04-03T02:25:22;1.50;;;1.40;;
40314;SDS011;26021;45.640;11.302;2023-04-03T02:27:47;1.48;;;1.38;;
40314;SDS011;26021;45.640;11.302;2023-04-03T02:30:13;1.92;;;1.83;;
40314;SDS011;26021;45.640;11.302;2023-04-03T02:32:40;2.65;;;1.42;;
40314;SDS011;26021;45.640;11.302;2023-04-03T02:35:06;1.90;;;1.60;;
40314;SDS011;26021;45.640;11.302;2023-04-03T02:37:32;1.40;;;1.23;;
40314;SDS011;26021;45.640;11.302;2023-04-03T02:39:57;1.55;;;1.20;;
40314;SDS011;26021;45.640;11.302;2023-04-03T02:42:23;1.23;;;1.08;;
40314;SDS011;26021;45.640;11.302;2023-04-03T02:44:48;2.35;;;1.42;;
40314;SDS011;26021;45.640;11.302;2023-04-03T02:47:14;1.30;;;1.20;;
40314;SDS011;26021;45.640;11.302;2023-04-03T02:49:39;1.58;;;1.23;;
40314;SDS011;26021;45.640;11.302;2023-04-03T02:52:05;1.88;;;1.30;;
40314;SDS011;26021;45.640;11.302;2023-04-03T02:54:30;1.45;;;1.38;;
40314;SDS011;26021;45.640;11.302;2023-04-03T02:56:56;1.77;;;1.50;;
40314;SDS011;26021;45.640;11.302;2023-04-03T02:59:22;2.00;;;1.40;;
40314;SDS011;26021;45.640;11.302;2023-04-03T03:01:47;3.22;;;2.30;;
40314;SDS011;26021;45.640;11.302;2023-04-03T03:04:13;1.65;;;1.55;;
40314;SDS011;26021;45.640;11.302;2023-04-03T03:06:38;1.95;;;1.50;;
40314;SDS011;26021;45.640;11.302;2023-04-03T03:09:04;9.68;;;3.65;;
40314;SDS011;26021;45.640;11.302;2023-04-03T03:11:30;4.20;;;2.70;;
40314;SDS011;26021;45.640;11.302;2023-04-03T03:13:56;2.60;;;2.40;;
40314;SDS011;26021;45.640;11.302;2023-04-03T03:16:21;2.10;;;2.00;;
40314;SDS011;26021;45.640;11.302;2023-04-03T03:18:47;2.50;;;2.10;;
40314;SDS011;26021;45.640;11.302;2023-04-03T03:21:13;2.53;;;2.08;;
40314;SDS011;26021;45.640;11.302;2023-04-03T03:23:38;3.88;;;2.55;;
40314;SDS011;26021;45.640;11.302;2023-04-03T03:26:05;6.15;;;2.97;;
40314;SDS011;26021;45.640;11.302;2023-04-03T03:28:33;3.75;;;3.10;;
40314;SDS011;26021;45.640;11.302;2023-04-03T03:30:58;4.13;;;2.83;;
40314;SDS011;26021;45.640;11.302;2023-04-03T03:33:25;3.80;;;3.13;;
40314;SDS011;26021;45.640;11.302;2023-04-03T03:35:51;4.20;;;2.80;;
40314;SDS011;26021;45.640;11.302;2023-04-03T03:38:18;4.40;;;2.90;;
40314;SDS011;26021;45.640;11.302;2023-04-03T03:40:43;4.53;;;2.90;;
40314;SDS011;26021;45.640;11.302;2023-04-03T03:43:09;5.10;;;2.75;;
40314;SDS011;26021;45.640;11.302;2023-04-03T03:45:35;3.08;;;2.58;;
40314;SDS011;26021;45.640;11.302;2023-04-03T03:48:00;3.58;;;2.67;;
40314;SDS011;26021;45.640;11.302;2023-04-03T03:50:26;3.85;;;3.25;;
40314;SDS011;26021;45.640;11.302;2023-04-03T03:52:52;5.25;;;3.15;;
40314;SDS011;26021;45.640;11.302;2023-04-03T03:55:17;4.55;;;3.40;;
40314;SDS011;26021;45.640;11.302;2023-04-03T03:57:43;3.30;;;2.75;;
40314;SDS011;26021;45.640;11.302;2023-04-03T04:00:09;4.20;;;3.60;;
40314;SDS011;26021;45.640;11.302;2023-04-03T04:02:35;3.42;;;3.13;;
40314;SDS011;26021;45.640;11.302;2023-04-03T04:05:00;4.43;;;2.95;;
40314;SDS011;26021;45.640;11.302;2023-04-03T04:07:26;3.47;;;3.17;;
40314;SDS011;26021;45.640;11.302;2023-04-03T04:09:53;5.53;;;3.78;;
40314;SDS011;26021;45.640;11.302;2023-04-03T04:12:19;3.30;;;3.00;;
40314;SDS011;26021;45.640;11.302;2023-04-03T04:14:45;3.50;;;2.95;;
40314;SDS011;26021;45.640;11.302;2023-04-03T04:17:11;4.05;;;3.25;;
40314;SDS011;26021;45.640;11.302;2023-04-03T04:19:38;4.05;;;3.08;;
40314;SDS011;26021;45.640;11.302;2023-04-03T04:22:03;4.00;;;2.85;;
40314;SDS011;26021;45.640;11.302;2023-04-03T04:24:29;4.35;;;3.67;;
40314;SDS011;26021;45.640;11.302;2023-04-03T04:26:54;4.28;;;3.88;;
40314;SDS011;26021;45.640;11.302;2023-04-03T04:29:20;4.57;;;3.38;;
40314;SDS011;26021;45.640;11.302;2023-04-03T04:31:45;4.57;;;3.15;;
40314;SDS011;26021;45.640;11.302;2023-04-03T04:34:11;4.80;;;2.60;;
40314;SDS011;26021;45.640;11.302;2023-04-03T04:36:38;5.78;;;2.92;;
40314;SDS011;26021;45.640;11.302;2023-04-03T04:39:04;3.75;;;2.83;;
40314;SDS011;26021;45.640;11.302;2023-04-03T04:41:30;3.22;;;2.92;;
40314;SDS011;26021;45.640;11.302;2023-04-03T04:43:56;4.30;;;2.85;;
40314;SDS011;26021;45.640;11.302;2023-04-03T04:46:22;4.10;;;3.35;;
40314;SDS011;26021;45.640;11.302;2023-04-03T04:48:47;11.68;;;6.30;;
40314;SDS011;26021;45.640;11.302;2023-04-03T04:51:13;4.07;;;2.50;;
40314;SDS011;26021;45.640;11.302;2023-04-03T04:53:40;6.15;;;4.13;;
40314;SDS011;26021;45.640;11.302;2023-04-03T04:56:06;3.47;;;2.80;;
40314;SDS011;26021;45.640;11.302;2023-04-03T04:58:31;3.38;;;3.00;;
40314;SDS011;26021;45.640;11.302;2023-04-03T05:00:58;3.22;;;2.80;;
40314;SDS011;26021;45.640;11.302;2023-04-03T05:03:28;3.58;;;2.97;;
40314;SDS011;26021;45.640;11.302;2023-04-03T05:05:53;3.85;;;3.45;;
40314;SDS011;26021;45.640;11.302;2023-04-03T05:08:19;7.00;;;4.63;;
40314;SDS011;26021;45.640;11.302;2023-04-03T05:10:45;6.45;;;2.70;;
40314;SDS011;26021;45.640;11.302;2023-04-03T05:13:12;5.30;;;2.78;;
40314;SDS011;26021;45.640;11.302;2023-04-03T05:15:39;5.68;;;2.78;;
40314;SDS011;26021;45.640;11.302;2023-04-03T05:18:05;3.90;;;2.90;;
40314;SDS011;26021;45.640;11.302;2023-04-03T05:20:31;3.65;;;2.92;;
40314;SDS011;26021;45.640;11.302;2023-04-03T05:22:57;8.75;;;3.78;;
40314;SDS011;26021;45.640;11.302;2023-04-03T05:25:22;6.35;;;3.83;;
40314;SDS011;26021;45.640;11.302;2023-04-03T05:27:48;5.50;;;3.65;;
40314;SDS011;26021;45.640;11.302;2023-04-03T05:30:13;4.53;;;3.80;;
40314;SDS011;26021;45.640;11.302;2023-04-03T05:32:39;4.82;;;3.70;;
40314;SDS011;26021;45.640;11.302;2023-04-03T05:35:05;3.38;;;2.95;;
40314;SDS011;26021;45.640;11.302;2023-04-03T05:37:32;6.20;;;3.95;;
40314;SDS011;26021;45.640;11.302;2023-04-03T05:39:59;5.55;;;4.57;;
40314;SDS011;26021;45.640;11.302;2023-04-03T05:42:24;10.52;;;5.13;;
40314;SDS011;26021;45.640;11.302;2023-04-03T05:44:50;5.88;;;4.75;;
40314;SDS011;26021;45.640;11.302;2023-04-03T05:47:16;8.30;;;4.60;;
40314;SDS011;26021;45.640;11.302;2023-04-03T05:49:42;6.03;;;3.92;;
40314;SDS011;26021;45.640;11.302;2023-04-03T05:52:28;4.93;;;3.75;;
40314;SDS011;26021;45.640;11.302;2023-04-03T05:54:57;7.13;;;3.78;;
40314;SDS011;26021;45.640;11.302;2023-04-03T05:57:22;8.90;;;3.72;;
40314;SDS011;26021;45.640;11.302;2023-04-03T05:59:48;6.55;;;3.67;;
40314;SDS011;26021;45.640;11.302;2023-04-03T06:02:18;6.45;;;4.13;;
40314;SDS011;26021;45.640;11.302;2023-04-03T06:04:45;4.85;;;3.92;;
40314;SDS011;26021;45.640;11.302;2023-04-03T06:07:18;8.70;;;3.75;;
40314;SDS011;26021;45.640;11.302;2023-04-03T06:09:47;4.93;;;3.30;;
40314;SDS011;26021;45.640;11.302;2023-04-03T06:12:13;3.88;;;3.45;;
40314;SDS011;26021;45.640;11.302;2023-04-03T06:14:39;5.97;;;3.78;;
40314;SDS011;26021;45.640;11.302;2023-04-03T06:17:06;5.93;;;3.60;;
40314;SDS011;26021;45.640;11.302;2023-04-03T06:19:32;5.60;;;4.00;;
40314;SDS011;26021;45.640;11.302;2023-04-03T06:21:58;6.28;;;4.35;;
40314;SDS011;26021;45.640;11.302;2023-04-03T06:24:23;6.45;;;4.70;;
40314;SDS011;26021;45.640;11.302;2023-04-03T06:26:50;7.00;;;3.72;;
40314;SDS011;26021;45.640;11.302;2023-04-03T06:29:16;5.85;;;4.05;;
40314;SDS011;26021;45.640;11.302;2023-04-03T06:31:42;4.50;;;3.70;;
40314;SDS011;26021;45.640;11.302;2023-04-03T06:34:08;5.55;;;4.18;;
40314;SDS011;26021;45.640;11.302;2023-04-03T06:36:33;5.65;;;4.55;;
40314;SDS011;26021;45.640;11.302;2023-04-03T06:38:59;8.82;;;4.57;;
40314;SDS011;26021;45.640;11.302;2023-04-03T06:41:25;5.30;;;4.20;;
40314;SDS011;26021;45.640;11.302;2023-04-03T06:43:51;6.32;;;3.78;;
40314;SDS011;26021;45.640;11.302;2023-04-03T06:46:17;3.78;;;3.22;;
40314;SDS011;26021;45.640;11.302;2023-04-03T06:48:47;4.75;;;3.45;;
40314;SDS011;26021;45.640;11.302;2023-04-03T06:53:53;7.35;;;3.72;;
40314;SDS011;26021;45.640;11.302;2023-04-03T06:56:20;5.18;;;3.42;;
40314;SDS011;26021;45.640;11.302;2023-04-03T06:58:46;4.05;;;3.42;;
40314;SDS011;26021;45.640;11.302;2023-04-03T07:01:12;5.55;;;3.63;;
40314;SDS011;26021;45.640;11.302;2023-04-03T07:03:39;3.88;;;3.25;;
40314;SDS011;26021;45.640;11.302;2023-04-03T07:06:05;6.97;;;5.20;;
40314;SDS011;26021;45.640;11.302;2023-04-03T07:08:32;6.47;;;3.55;;
40314;SDS011;26021;45.640;11.302;2023-04-03T07:10:58;7.13;;;3.45;;
40314;SDS011;26021;45.640;11.302;2023-04-03T07:13:24;5.70;;;3.50;;
40314;SDS011;26021;45.640;11.302;2023-04-03T07:15:49;3.70;;;2.88;;
40314;SDS011;26021;45.640;11.302;2023-04-03T07:18:15;2.92;;;2.50;;
40314;SDS011;26021;45.640;11.302;2023-04-03T07:20:42;7.38;;;3.45;;
40314;SDS011;26021;45.640;11.302;2023-04-03T07:23:07;5.15;;;3.05;;
40314;SDS011;26021;45.640;11.302;2023-04-03T07:25:33;6.50;;;3.05;;
40314;SDS011;26021;45.640;11.302;2023-04-03T07:27:59;7.30;;;3.53;;
40314;SDS011;26021;45.640;11.302;2023-04-03T07:30:24;5.40;;;3.33;;
40314;SDS011;26021;45.640;11.302;2023-04-03T07:32:51;7.13;;;3.42;;
40314;SDS011;26021;45.640;11.302;2023-04-03T07:35:17;8.85;;;3.17;;
40314;SDS011;26021;45.640;11.302;2023-04-03T07:37:43;5.32;;;3.30;;
40314;SDS011;26021;45.640;11.302;2023-04-03T07:40:09;4.00;;;2.90;;
40314;SDS011;26021;45.640;11.302;2023-04-03T07:42:35;5.82;;;2.50;;
40314;SDS011;26021;45.640;11.302;2023-04-03T07:45:01;4.35;;;2.13;;
40314;SDS011;26021;45.640;11.302;2023-04-03T07:47:30;8.23;;;2.88;;
40314;SDS011;26021;45.640;11.302;2023-04-03T07:49:56;4.30;;;2.15;;
40314;SDS011;26021;45.640;11.302;2023-04-03T07:52:22;3.85;;;2.78;;
40314;SDS011;26021;45.640;11.302;2023-04-03T07:54:48;8.75;;;2.70;;
40314;SDS011;26021;45.640;11.302;2023-04-03T07:57:13;6.20;;;2.40;;
40314;SDS011;26021;45.640;11.302;2023-04-03T07:59:39;3.75;;;2.25;;
40314;SDS011;26021;45.640;11.302;2023-04-03T08:02:08;4.22;;;2.10;;
40314;SDS011;26021;45.640;11.302;2023-04-03T08:04:34;4.68;;;1.92;;
40314;SDS011;26021;45.640;11.302;2023-04-03T08:07:00;5.88;;;2.85;;
40314;SDS011;26021;45.640;11.302;2023-04-03T08:09:25;5.60;;;2.75;;
40314;SDS011;26021;45.640;11.302;2023-04-03T08:11:50;3.47;;;2.15;;
40314;SDS011;26021;45.640;11.302;2023-04-03T08:14:18;4.70;;;2.10;;
40314;SDS011;26021;45.640;11.302;2023-04-03T08:16:45;4.22;;;2.45;;
40314;SDS011;26021;45.640;11.302;2023-04-03T08:19:13;3.75;;;2.22;;
40314;SDS011;26021;45.640;11.302;2023-04-03T08:21:41;5.00;;;2.10;;
40314;SDS011;26021;45.640;11.302;2023-04-03T08:24:07;3.00;;;2.35;;
40314;SDS011;26021;45.640;11.302;2023-04-03T08:26:34;3.17;;;2.60;;
40314;SDS011;26021;45.640;11.302;2023-04-03T08:28:59;3.63;;;2.35;;
40314;SDS011;26021;45.640;11.302;2023-04-03T08:31:25;10.20;;;2.90;;
40314;SDS011;26021;45.640;11.302;2023-04-03T08:33:50;6.40;;;2.85;;
40314;SDS011;26021;45.640;11.302;2023-04-03T08:36:18;4.22;;;3.20;;
40314;SDS011;26021;45.640;11.302;2023-04-03T08:38:48;7.65;;;2.95;;
40314;SDS011;26021;45.640;11.302;2023-04-03T08:49:43;6.88;;;4.60;;
40314;SDS011;26021;45.640;11.302;2023-04-03T08:55:04;6.50;;;4.20;;
40314;SDS011;26021;45.640;11.302;2023-04-03T08:57:38;6.57;;;4.57;;
40314;SDS011;26021;45.640;11.302;2023-04-03T09:10:52;7.28;;;3.95;;
40314;SDS011;26021;45.640;11.302;2023-04-03T09:13:48;7.13;;;4.43;;
40314;SDS011;26021;45.640;11.302;2023-04-03T09:16:45;7.75;;;4.20;;
40314;SDS011;26021;45.640;11.302;2023-04-03T09:22:25;11.77;;;4.72;;
40314;SDS011;26021;45.640;11.302;2023-04-03T09:24:57;10.48;;;4.50;;
40314;SDS011;26021;45.640;11.302;2023-04-03T09:27:26;9.70;;;3.97;;
40314;SDS011;26021;45.640;11.302;2023-04-03T09:29:53;8.00;;;3.60;;
40314;SDS011;26021;45.640;11.302;2023-04-03T09:34:50;10.75;;;4.18;;
40314;SDS011;26021;45.640;11.302;2023-04-03T09:45:41;6.65;;;3.58;;
40314;SDS011;26021;45.640;11.302;2023-04-03T09:48:09;4.68;;;3.55;;
40314;SDS011;26021;45.640;11.302;2023-04-03T09:51:00;4.82;;;3.53;;
40314;SDS011;26021;45.640;11.302;2023-04-03T09:53:39;5.63;;;3.58;;
40314;SDS011;26021;45.640;11.302;2023-04-03T09:58:39;4.55;;;3.40;;
40314;SDS011;26021;45.640;11.302;2023-04-03T10:01:06;7.47;;;3.70;;
40314;SDS011;26021;45.640;11.302;2023-04-03T10:03:49;6.22;;;3.65;;
40314;SDS011;26021;45.640;11.302;2023-04-03T10:06:56;6.65;;;4.07;;
40314;SDS011;26021;45.640;11.302;2023-04-03T10:11:57;6.50;;;3.70;;
40314;SDS011;26021;45.640;11.302;2023-04-03T10:14:26;10.00;;;4.20;;
40314;SDS011;26021;45.640;11.302;2023-04-03T10:16:56;8.00;;;3.85;;
40314;SDS011;26021;45.640;11.302;2023-04-03T10:22:13;9.18;;;3.80;;
40314;SDS011;26021;45.640;11.302;2023-04-03T10:27:39;6.55;;;3.72;;
40314;SDS011;26021;45.640;11.302;2023-04-03T10:38:31;6.70;;;3.40;;
40314;SDS011;26021;45.640;11.302;2023-04-03T10:41:07;7.15;;;3.47;;
40314;SDS011;26021;45.640;11.302;2023-04-03T10:43:54;7.78;;;3.35;;
40314;SDS011;26021;45.640;11.302;2023-04-03T10:55:04;5.63;;;3.42;;
40314;SDS011;26021;45.640;11.302;2023-04-03T10:57:43;8.13;;;3.72;;
40314;SDS011;26021;45.640;11.302;2023-04-03T11:00:55;10.82;;;3.50;;
40314;SDS011;26021;45.640;11.302;2023-04-03T11:05:45;6.97;;;4.25;;
40314;SDS011;26021;45.640;11.302;2023-04-03T11:08:26;6.85;;;4.10;;
40314;SDS011;26021;45.640;11.302;2023-04-03T11:10:59;8.18;;;3.70;;
40314;SDS011;26021;45.640;11.302;2023-04-03T11:16:04;7.15;;;3.60;;
40314;SDS011;26021;45.640;11.302;2023-04-03T11:18:40;11.02;;;3.95;;
40314;SDS011;26021;45.640;11.302;2023-04-03T11:21:18;4.95;;;3.45;;
40314;SDS011;26021;45.640;11.302;2023-04-03T11:23:47;8.15;;;3.88;;
40314;SDS011;26021;45.640;11.302;2023-04-03T11:26:14;10.57;;;4.35;;
40314;SDS011;26021;45.640;11.302;2023-04-03T11:28:42;6.85;;;3.67;;
40314;SDS011;26021;45.640;11.302;2023-04-03T11:37:51;7.72;;;4.20;;
40314;SDS011;26021;45.640;11.302;2023-04-03T11:40:04;5.50;;;3.53;;
40314;SDS011;26021;45.640;11.302;2023-04-03T11:42:52;7.05;;;3.70;;
40314;SDS011;26021;45.640;11.302;2023-04-03T11:45:31;7.68;;;3.97;;
40314;SDS011;26021;45.640;11.302;2023-04-03T11:48:29;9.73;;;4.20;;
40314;SDS011;26021;45.640;11.302;2023-04-03T11:50:58;6.85;;;3.85;;
40314;SDS011;26021;45.640;11.302;2023-04-03T11:53:29;7.47;;;3.65;;
40314;SDS011;26021;45.640;11.302;2023-04-03T11:56:00;7.45;;;3.90;;
40314;SDS011;26021;45.640;11.302;2023-04-03T11:58:30;8.57;;;3.55;;
40314;SDS011;26021;45.640;11.302;2023-04-03T12:16:24;4.93;;;3.80;;
40314;SDS011;26021;45.640;11.302;2023-04-03T12:21:37;7.97;;;4.18;;
40314;SDS011;26021;45.640;11.302;2023-04-03T12:34:42;6.70;;;4.18;;
40314;SDS011;26021;45.640;11.302;2023-04-03T12:40:41;8.23;;;4.40;;
40314;SDS011;26021;45.640;11.302;2023-04-03T12:45:59;8.70;;;5.30;;
40314;SDS011;26021;45.640;11.302;2023-04-03T12:48:47;8.00;;;4.47;;
40314;SDS011;26021;45.640;11.302;2023-04-03T12:51:25;6.43;;;3.85;;
40314;SDS011;26021;45.640;11.302;2023-04-03T12:57:24;8.93;;;4.82;;
40314;SDS011;26021;45.640;11.302;2023-04-03T12:59:49;6.88;;;4.47;;
40314;SDS011;26021;45.640;11.302;2023-04-03T13:02:35;9.10;;;5.05;;
40314;SDS011;26021;45.640;11.302;2023-04-03T13:05:07;8.10;;;4.70;;
40314;SDS011;26021;45.640;11.302;2023-04-03T13:07:35;6.30;;;4.43;;
40314;SDS011;26021;45.640;11.302;2023-04-03T13:12:35;7.72;;;5.20;;
40314;SDS011;26021;45.640;11.302;2023-04-03T13:15:26;6.50;;;4.33;;
40314;SDS011;26021;45.640;11.302;2023-04-03T13:17:54;12.45;;;4.97;;
40314;SDS011;26021;45.640;11.302;2023-04-03T13:20:22;7.50;;;4.20;;
40314;SDS011;26021;45.640;11.302;2023-04-03T13:23:10;8.88;;;4.53;;
40314;SDS011;26021;45.640;11.302;2023-04-03T13:25:40;6.15;;;4.20;;
40314;SDS011;26021;45.640;11.302;2023-04-03T13:28:13;10.02;;;4.32;;
40314;SDS011;26021;45.640;11.302;2023-04-03T13:30:53;10.40;;;4.40;;
40314;SDS011;26021;45.640;11.302;2023-04-03T13:33:27;17.45;;;5.60;;
40314;SDS011;26021;45.640;11.302;2023-04-03T13:35:58;6.78;;;4.25;;
40314;SDS011;26021;45.640;11.302;2023-04-03T13:38:29;7.47;;;3.80;;
40314;SDS011;26021;45.640;11.302;2023-04-03T13:41:20;6.45;;;4.10;;
40314;SDS011;26021;45.640;11.302;2023-04-03T13:43:49;7.47;;;3.65;;
40314;SDS011;26021;45.640;11.302;2023-04-03T13:48:41;7.38;;;3.95;;
40314;SDS011;26021;45.640;11.302;2023-04-03T13:58:57;10.80;;;3.55;;
40314;SDS011;26021;45.640;11.302;2023-04-03T14:01:23;8.57;;;3.67;;
40314;SDS011;26021;45.640;11.302;2023-04-03T14:03:58;12.15;;;4.20;;
40314;SDS011;26021;45.640;11.302;2023-04-03T14:06:26;8.65;;;4.00;;
40314;SDS011;26021;45.640;11.302;2023-04-03T14:08:52;14.27;;;4.35;;
40314;SDS011;26021;45.640;11.302;2023-04-03T14:11:26;7.60;;;3.95;;
40314;SDS011;26021;45.640;11.302;2023-04-03T14:13:55;8.40;;;4.80;;
40314;SDS011;26021;45.640;11.302;2023-04-03T14:16:26;12.65;;;4.97;;
40314;SDS011;26021;45.640;11.302;2023-04-03T14:18:54;6.55;;;4.00;;
40314;SDS011;26021;45.640;11.302;2023-04-03T14:21:21;9.30;;;4.13;;
40314;SDS011;26021;45.640;11.302;2023-04-03T14:23:46;10.43;;;4.22;;
40314;SDS011;26021;45.640;11.302;2023-04-03T14:26:14;10.35;;;4.63;;
40314;SDS011;26021;45.640;11.302;2023-04-03T14:28:43;8.82;;;5.15;;
40314;SDS011;26021;45.640;11.302;2023-04-03T14:31:11;8.88;;;4.53;;
40314;SDS011;26021;45.640;11.302;2023-04-03T14:33:39;7.40;;;4.53;;
40314;SDS011;26021;45.640;11.302;2023-04-03T14:36:15;6.15;;;3.85;;
40314;SDS011;26021;45.640;11.302;2023-04-03T14:38:52;9.80;;;4.10;;
40314;SDS011;26021;45.640;11.302;2023-04-03T14:41:19;11.18;;;4.10;;
40314;SDS011;26021;45.640;11.302;2023-04-03T14:43:47;8.68;;;3.28;;
40314;SDS011;26021;45.640;11.302;2023-04-03T14:46:18;6.60;;;3.80;;
40314;SDS011;26021;45.640;11.302;2023-04-03T14:48:48;10.88;;;4.55;;
40314;SDS011;26021;45.640;11.302;2023-04-03T14:51:14;6.63;;;4.07;;
40314;SDS011;26021;45.640;11.302;2023-04-03T14:53:41;6.28;;;3.80;;
40314;SDS011;26021;45.640;11.302;2023-04-03T14:59:04;7.30;;;4.00;;
40314;SDS011;26021;45.640;11.302;2023-04-03T15:01:34;8.02;;;4.03;;
40314;SDS011;26021;45.640;11.302;2023-04-03T15:04:00;11.02;;;4.13;;
40314;SDS011;26021;45.640;11.302;2023-04-03T15:06:25;6.47;;;3.83;;
40314;SDS011;26021;45.640;11.302;2023-04-03T15:08:51;7.05;;;3.90;;
40314;SDS011;26021;45.640;11.302;2023-04-03T15:11:16;5.80;;;3.80;;
40314;SDS011;26021;45.640;11.302;2023-04-03T15:13:42;12.13;;;3.65;;
40314;SDS011;26021;45.640;11.302;2023-04-03T15:16:15;10.02;;;4.97;;
40314;SDS011;26021;45.640;11.302;2023-04-03T15:18:43;8.82;;;5.10;;
40314;SDS011;26021;45.640;11.302;2023-04-03T15:21:10;5.78;;;4.00;;
40314;SDS011;26021;45.640;11.302;2023-04-03T15:23:35;6.15;;;3.92;;
40314;SDS011;26021;45.640;11.302;2023-04-03T15:26:01;6.95;;;4.00;;
40314;SDS011;26021;45.640;11.302;2023-04-03T15:30:58;7.38;;;4.38;;
40314;SDS011;26021;45.640;11.302;2023-04-03T15:33:24;12.00;;;4.43;;
40314;SDS011;26021;45.640;11.302;2023-04-03T15:35:50;11.23;;;4.47;;
40314;SDS011;26021;45.640;11.302;2023-04-03T15:38:16;6.55;;;4.45;;
40314;SDS011;26021;45.640;11.302;2023-04-03T15:40:42;12.10;;;4.43;;
40314;SDS011;26021;45.640;11.302;2023-04-03T15:43:09;10.23;;;4.78;;
40314;SDS011;26021;45.640;11.302;2023-04-03T15:45:35;9.20;;;4.53;;
40314;SDS011;26021;45.640;11.302;2023-04-03T15:48:02;9.75;;;5.50;;
40314;SDS011;26021;45.640;11.302;2023-04-03T15:50:30;8.00;;;4.53;;
40314;SDS011;26021;45.640;11.302;2023-04-03T15:52:56;8.10;;;4.35;;
40314;SDS011;26021;45.640;11.302;2023-04-03T15:55:26;12.52;;;5.25;;
40314;SDS011;26021;45.640;11.302;2023-04-03T15:57:53;11.80;;;4.85;;
40314;SDS011;26021;45.640;11.302;2023-04-03T16:00:19;11.75;;;4.60;;
40314;SDS011;26021;45.640;11.302;2023-04-03T16:02:46;10.65;;;4.78;;
40314;SDS011;26021;45.640;11.302;2023-04-03T16:05:13;9.25;;;4.50;;
40314;SDS011;26021;45.640;11.302;2023-04-03T16:07:40;6.95;;;3.83;;
40314;SDS011;26021;45.640;11.302;2023-04-03T16:10:07;11.50;;;4.53;;
40314;SDS011;26021;45.640;11.302;2023-04-03T16:12:33;6.57;;;4.15;;
40314;SDS011;26021;45.640;11.302;2023-04-03T16:14:59;12.20;;;4.60;;
40314;SDS011;26021;45.640;11.302;2023-04-03T16:17:25;8.77;;;3.38;;
40314;SDS011;26021;45.640;11.302;2023-04-03T16:19:52;6.82;;;3.33;;
40314;SDS011;26021;45.640;11.302;2023-04-03T16:22:19;5.53;;;2.55;;
40314;SDS011;26021;45.640;11.302;2023-04-03T16:24:45;9.25;;;2.50;;
40314;SDS011;26021;45.640;11.302;2023-04-03T16:27:11;5.95;;;2.50;;
40314;SDS011;26021;45.640;11.302;2023-04-03T16:29:36;8.70;;;2.67;;
40314;SDS011;26021;45.640;11.302;2023-04-03T16:32:02;13.48;;;5.00;;
40314;SDS011;26021;45.640;11.302;2023-04-03T16:34:28;16.13;;;7.63;;
40314;SDS011;26021;45.640;11.302;2023-04-03T16:36:55;10.45;;;4.45;;
40314;SDS011;26021;45.640;11.302;2023-04-03T16:39:21;7.20;;;2.55;;
40314;SDS011;26021;45.640;11.302;2023-04-03T16:41:46;6.07;;;2.40;;
40314;SDS011;26021;45.640;11.302;2023-04-03T16:44:12;8.68;;;2.30;;
40314;SDS011;26021;45.640;11.302;2023-04-03T16:46:38;6.82;;;2.28;;
40314;SDS011;26021;45.640;11.302;2023-04-03T16:49:04;5.47;;;2.30;;
40314;SDS011;26021;45.640;11.302;2023-04-03T16:51:29;5.38;;;2.22;;
40314;SDS011;26021;45.640;11.302;2023-04-03T16:53:56;7.22;;;2.38;;
40314;SDS011;26021;45.640;11.302;2023-04-03T16:56:22;4.45;;;2.17;;